createdAt,value
2018-08-07T00:01:28.716Z,5.20
2018-08-07T00:03:57.511Z,5.87
2018-08-07T00:06:26.166Z,5.33
2018-08-07T00:08:54.842Z,5.20
2018-08-07T00:11:23.517Z,5.10
2018-08-07T00:13:52.213Z,5.77
2018-08-07T00:16:20.888Z,5.40
2018-08-07T00:18:49.524Z,5.47
2018-08-07T00:21:18.191Z,5.63
2018-08-07T00:23:46.877Z,5.23
2018-08-07T00:26:15.571Z,5.20
2018-08-07T00:28:44.166Z,5.43
2018-08-07T00:31:12.882Z,5.80
2018-08-07T00:33:41.621Z,5.30
2018-08-07T00:36:10.413Z,5.10
2018-08-07T00:38:39.180Z,5.30
2018-08-07T00:41:08.245Z,5.03
2018-08-07T00:43:36.900Z,4.90
2018-08-07T00:46:05.695Z,5.53
2018-08-07T00:48:34.279Z,5.10
2018-08-07T00:51:03.016Z,5.93
2018-08-07T00:53:31.628Z,5.17
2018-08-07T00:56:00.281Z,5.73
2018-08-07T00:58:28.952Z,5.13
2018-08-07T01:00:57.649Z,6.67
2018-08-07T01:03:26.339Z,6.47
2018-08-07T01:05:54.964Z,5.87
2018-08-07T01:08:23.541Z,5.70
2018-08-07T01:10:52.151Z,6.10
2018-08-07T01:13:20.826Z,5.83
2018-08-07T01:15:49.463Z,5.20
2018-08-07T01:18:18.078Z,5.40
2018-08-07T01:20:46.775Z,5.43
2018-08-07T01:23:15.481Z,5.57
2018-08-07T01:25:44.109Z,6.23
2018-08-07T01:28:12.731Z,5.60
2018-08-07T01:30:41.096Z,6.07
2018-08-07T01:33:09.743Z,5.10
2018-08-07T01:35:38.353Z,6.17
2018-08-07T01:38:06.983Z,5.70
2018-08-07T01:40:35.618Z,5.33
2018-08-07T01:43:04.279Z,5.47
2018-08-07T01:45:32.929Z,5.33
2018-08-07T01:48:01.565Z,5.80
2018-08-07T01:50:30.180Z,6.10
2018-08-07T01:52:58.835Z,5.60
2018-08-07T01:55:28.372Z,5.90
2018-08-07T01:57:57.086Z,6.53
2018-08-07T02:00:25.763Z,5.27
2018-08-07T02:02:54.457Z,5.83
2018-08-07T02:05:23.153Z,5.33
2018-08-07T02:07:51.804Z,5.43
2018-08-07T02:10:20.544Z,6.30
2018-08-07T02:12:49.360Z,5.60
2018-08-07T02:15:18.036Z,6.03
2018-08-07T02:17:46.632Z,5.40
2018-08-07T02:20:16.767Z,5.60
2018-08-07T02:22:46.112Z,5.40
2018-08-07T02:25:18.188Z,6.40
2018-08-07T02:27:47.433Z,6.83
2018-08-07T02:30:16.830Z,5.50
2018-08-07T02:32:45.151Z,5.57
2018-08-07T02:35:14.986Z,5.73
2018-08-07T02:37:44.760Z,6.27
2018-08-07T02:40:14.230Z,5.40
2018-08-07T02:42:43.406Z,5.33
2018-08-07T02:45:13.121Z,6.50
2018-08-07T02:47:42.859Z,5.43
2018-08-07T02:50:13.284Z,5.27
2018-08-07T02:52:42.031Z,6.20
2018-08-07T02:55:11.364Z,5.67
2018-08-07T02:57:41.039Z,5.77
2018-08-07T03:00:14.595Z,5.37
2018-08-07T03:02:43.350Z,6.33
2018-08-07T03:05:12.109Z,6.70
2018-08-07T03:07:40.857Z,6.33
2018-08-07T03:10:10.157Z,5.83
2018-08-07T03:12:39.412Z,5.83
2018-08-07T03:15:11.515Z,6.50
2018-08-07T03:17:40.284Z,7.00
2018-08-07T03:20:09.372Z,5.73
2018-08-07T03:22:38.373Z,6.57
2018-08-07T03:25:09.194Z,6.00
2018-08-07T03:27:37.513Z,7.30
2018-08-07T03:30:09.223Z,6.30
2018-08-07T03:32:37.982Z,6.00
2018-08-07T03:35:06.962Z,6.73
2018-08-07T03:37:35.867Z,6.60
2018-08-07T03:40:07.362Z,7.07
2018-08-07T03:42:36.137Z,6.80
2018-08-07T03:45:05.653Z,6.60
2018-08-07T03:47:35.089Z,6.20
2018-08-07T03:50:04.265Z,6.13
2018-08-07T03:52:33.180Z,5.73
2018-08-07T03:55:01.949Z,5.37
2018-08-07T03:57:30.711Z,6.10
2018-08-07T03:59:59.332Z,6.63
2018-08-07T04:02:27.961Z,6.10
2018-08-07T04:04:56.733Z,6.30
2018-08-07T04:07:25.373Z,6.47
2018-08-07T04:09:54.134Z,6.13
2018-08-07T04:12:22.883Z,6.20
2018-08-07T04:14:51.678Z,6.20
2018-08-07T04:17:20.317Z,6.40
2018-08-07T04:19:49.050Z,5.20
2018-08-07T04:22:17.745Z,5.43
2018-08-07T04:24:46.365Z,5.70
2018-08-07T04:27:15.222Z,6.50
2018-08-07T04:29:43.951Z,6.20
2018-08-07T04:32:12.627Z,6.17
2018-08-07T04:34:41.442Z,5.70
2018-08-07T04:37:10.138Z,5.83
2018-08-07T04:39:38.792Z,5.83
2018-08-07T04:42:07.082Z,6.50
2018-08-07T04:44:35.823Z,5.73
2018-08-07T04:47:04.534Z,6.10
2018-08-07T04:49:33.176Z,5.67
2018-08-07T04:52:01.884Z,6.10
2018-08-07T04:54:30.564Z,6.10
2018-08-07T04:56:59.180Z,5.80
2018-08-07T04:59:27.835Z,6.57
2018-08-07T05:01:56.514Z,6.40
2018-08-07T05:04:25.307Z,5.07
2018-08-07T05:06:54.062Z,6.30
2018-08-07T05:09:22.297Z,5.70
2018-08-07T05:11:50.893Z,5.93
2018-08-07T05:14:19.534Z,5.77
2018-08-07T05:16:48.184Z,5.90
2018-08-07T05:19:16.878Z,5.63
2018-08-07T05:21:45.594Z,4.97
2018-08-07T05:24:14.269Z,4.77
2018-08-07T05:26:42.885Z,5.57
2018-08-07T05:29:11.560Z,5.00
2018-08-07T05:31:40.363Z,4.83
2018-08-07T05:34:09.006Z,4.45
2018-08-07T05:36:37.827Z,4.90
2018-08-07T05:39:08.702Z,4.60
2018-08-07T05:41:37.165Z,4.60
2018-08-07T05:46:33.759Z,4.27
2018-08-07T05:49:02.671Z,3.80
2018-08-07T05:51:32.183Z,3.77
2018-08-07T05:54:00.915Z,3.93
2018-08-07T09:35:55.713Z,1.30
2018-08-07T09:38:24.305Z,1.20
2018-08-07T09:40:52.821Z,1.10
2018-08-07T09:45:49.153Z,1.60
2018-08-07T09:50:45.465Z,2.25
2018-08-07T09:53:14.720Z,2.30
2018-08-07T09:55:43.315Z,2.37
2018-08-07T09:58:11.947Z,3.10
2018-08-07T10:00:45.681Z,3.03
2018-08-07T10:03:18.285Z,3.00
2018-08-07T10:05:46.768Z,2.75
2018-08-07T10:13:11.025Z,3.83
2018-08-07T10:15:39.556Z,3.80
2018-08-07T10:23:04.204Z,3.50
2018-08-07T10:25:32.636Z,3.10
2018-08-07T10:28:01.240Z,3.67
2018-08-07T10:30:29.889Z,3.70
2018-08-07T10:32:58.474Z,3.60
2018-08-07T10:35:27.048Z,3.80
2018-08-07T10:37:55.689Z,3.43
2018-08-07T10:40:25.744Z,3.50
2018-08-07T10:47:50.952Z,3.37
2018-08-07T10:50:23.061Z,3.30
2018-08-07T10:52:51.937Z,3.67
2018-08-07T10:55:21.418Z,3.50
2018-08-07T10:57:50.208Z,3.53
2018-08-07T11:00:21.893Z,3.83
2018-08-07T11:02:51.550Z,3.70
2018-08-07T11:05:20.680Z,3.80
2018-08-07T11:07:49.297Z,3.73
2018-08-07T11:10:18.366Z,3.53
2018-08-07T11:12:46.992Z,4.00
2018-08-07T11:15:21.089Z,3.53
2018-08-07T11:17:50.473Z,3.57
2018-08-07T11:20:19.550Z,3.73
2018-08-07T11:22:49.422Z,3.70
2018-08-07T11:25:19.264Z,3.40
2018-08-07T11:27:47.916Z,3.60
2018-08-07T11:30:18.519Z,3.00
2018-08-07T11:32:47.499Z,3.80
2018-08-07T11:35:16.385Z,3.50
2018-08-07T11:37:46.588Z,4.07
2018-08-07T11:40:16.719Z,4.07
2018-08-07T11:42:46.123Z,4.53
2018-08-07T11:45:16.053Z,4.10
2018-08-07T12:19:50.154Z,4.27
2018-08-07T12:22:18.650Z,4.23
2018-08-07T12:24:47.480Z,4.03
2018-08-07T12:27:15.923Z,3.87
2018-08-07T12:29:44.571Z,4.00
2018-08-07T12:32:12.675Z,3.63
2018-08-07T12:34:41.228Z,4.57
2018-08-07T12:37:09.964Z,3.20
2018-08-07T12:39:38.464Z,3.70
2018-08-07T12:42:06.968Z,3.73
2018-08-07T12:44:35.684Z,3.40
2018-08-07T12:47:04.198Z,3.23
2018-08-07T12:49:32.954Z,3.47
2018-08-07T12:52:01.654Z,3.87
2018-08-07T12:54:30.457Z,3.50
2018-08-07T12:56:59.003Z,3.30
2018-08-07T12:59:27.800Z,4.30
2018-08-07T13:01:56.677Z,3.67
2018-08-07T13:04:25.372Z,3.40
2018-08-07T13:06:54.549Z,3.90
2018-08-07T13:09:23.230Z,3.83
2018-08-07T13:11:51.878Z,3.00
2018-08-07T13:14:20.393Z,4.40
2018-08-07T13:16:48.809Z,3.90
2018-08-07T13:19:17.447Z,3.63
2018-08-07T13:21:46.242Z,3.60
2018-08-07T13:24:15.144Z,4.00
2018-08-07T13:26:43.740Z,3.30
2018-08-07T13:29:12.034Z,3.47
2018-08-07T13:31:40.530Z,3.50
2018-08-07T13:34:09.080Z,3.70
2018-08-07T13:36:38.007Z,3.43
2018-08-07T13:39:09.014Z,3.57
2018-08-07T13:41:37.606Z,3.10
2018-08-07T13:44:07.540Z,3.30
2018-08-07T13:46:36.177Z,3.43
2018-08-07T13:49:05.244Z,3.10
2018-08-07T13:51:34.039Z,3.23
2018-08-07T13:54:02.544Z,3.10
2018-08-07T13:56:31.424Z,3.17
2018-08-07T13:59:00.204Z,3.10
2018-08-07T14:01:28.747Z,3.37
2018-08-07T14:03:57.584Z,3.70
2018-08-07T14:06:26.573Z,3.30
2018-08-07T14:08:55.435Z,3.90
2018-08-07T14:11:24.262Z,3.70
2018-08-07T14:13:52.973Z,3.53
2018-08-07T14:16:21.554Z,3.13
2018-08-07T14:18:50.036Z,3.63
2018-08-07T14:21:18.615Z,3.73
2018-08-07T14:23:47.276Z,3.53
2018-08-07T14:26:15.806Z,3.47
2018-08-07T14:28:44.277Z,4.73
2018-08-07T14:31:12.865Z,3.57
2018-08-07T14:33:41.694Z,3.47
2018-08-07T14:36:10.389Z,3.50
2018-08-07T14:38:39.212Z,3.60
2018-08-07T14:41:07.833Z,3.83
2018-08-07T14:43:36.843Z,4.00
2018-08-07T14:46:05.580Z,3.67
2018-08-07T14:48:36.116Z,3.60
2018-08-07T14:51:04.583Z,3.33
2018-08-07T14:53:33.384Z,3.50
2018-08-07T14:56:01.963Z,3.37
2018-08-07T14:58:30.696Z,3.67
2018-08-07T15:00:59.143Z,3.40
2018-08-07T15:03:27.800Z,3.40
2018-08-07T15:05:56.514Z,3.43
2018-08-07T15:08:25.226Z,3.00
2018-08-07T15:10:53.911Z,3.27
2018-08-07T15:13:22.527Z,3.17
2018-08-07T15:15:51.106Z,3.97
2018-08-07T15:18:19.779Z,3.50
2018-08-07T15:20:48.421Z,3.80
2018-08-07T15:23:17.036Z,3.60
2018-08-07T15:25:45.773Z,3.27
2018-08-07T15:28:14.777Z,3.27
2018-08-07T15:30:43.291Z,3.30
2018-08-07T15:33:11.460Z,3.43
2018-08-07T15:35:40.256Z,3.57
2018-08-07T15:38:08.778Z,3.60
2018-08-07T15:40:37.296Z,3.77
2018-08-07T15:43:05.790Z,3.43
2018-08-07T15:45:34.358Z,3.20
2018-08-07T15:48:02.996Z,3.30
2018-08-07T15:50:31.544Z,3.30
2018-08-07T15:53:00.238Z,3.37
2018-08-07T15:55:29.259Z,3.87
2018-08-07T15:57:57.961Z,3.50
2018-08-07T16:00:31.929Z,4.20
2018-08-07T16:03:01.646Z,3.87
2018-08-07T16:05:30.331Z,3.23
2018-08-07T16:07:59.208Z,3.70
2018-08-07T16:10:27.808Z,3.53
2018-08-07T16:12:56.616Z,4.10
2018-08-07T16:15:25.268Z,3.43
2018-08-07T16:17:54.359Z,3.80
2018-08-07T16:20:23.681Z,3.80
2018-08-07T16:22:52.655Z,4.00
2018-08-07T16:25:21.851Z,3.60
2018-08-07T16:27:50.646Z,3.70
2018-08-07T16:30:27.558Z,3.23
2018-08-07T16:32:56.299Z,3.90
2018-08-07T16:35:25.009Z,4.07
2018-08-07T16:37:53.547Z,3.67
2018-08-07T16:40:23.722Z,3.90
2018-08-07T16:42:53.997Z,3.20
2018-08-07T16:45:23.477Z,3.70
2018-08-07T16:47:52.133Z,3.50
2018-08-07T16:50:26.566Z,4.10
2018-08-07T16:52:56.243Z,3.63
2018-08-07T16:55:26.462Z,3.27
2018-08-07T16:57:55.157Z,3.53
2018-08-07T17:00:23.899Z,3.50
2018-08-07T17:02:52.804Z,3.07
2018-08-07T17:05:21.141Z,3.70
2018-08-07T17:07:50.301Z,4.20
2018-08-07T17:10:24.889Z,4.23
2018-08-07T17:12:53.948Z,3.93
2018-08-07T17:15:22.725Z,3.70
2018-08-07T17:17:52.102Z,3.83
2018-08-07T17:20:22.018Z,3.70
2018-08-07T17:22:51.225Z,4.50
2018-08-07T17:25:21.168Z,4.30
2018-08-07T17:27:50.281Z,4.53
2018-08-07T17:30:21.638Z,4.60
2018-08-07T17:32:50.395Z,4.30
2018-08-07T17:35:20.227Z,4.60
2018-08-07T17:37:50.467Z,4.90
2018-08-07T17:40:20.962Z,4.30
2018-08-07T17:42:49.816Z,4.70
2018-08-07T17:45:18.640Z,4.40
2018-08-07T17:47:47.427Z,4.30
2018-08-07T17:50:21.017Z,4.47
2018-08-07T17:52:49.901Z,4.50
2018-08-07T17:55:18.671Z,4.80
2018-08-07T17:57:48.126Z,4.50
2018-08-07T18:00:18.365Z,5.03
2018-08-07T18:02:47.252Z,4.33
2018-08-07T18:05:16.079Z,4.40
2018-08-07T18:07:46.316Z,4.63
2018-08-07T18:10:16.590Z,5.10
2018-08-07T18:12:45.254Z,4.80
2018-08-07T18:15:15.763Z,4.20
2018-08-07T18:17:44.838Z,3.90
2018-08-07T18:20:16.254Z,4.43
2018-08-07T18:22:44.910Z,5.00
2018-08-07T18:25:13.496Z,4.80
2018-08-07T18:27:42.345Z,3.70
2018-08-07T18:30:14.433Z,4.20
2018-08-07T18:32:43.134Z,5.17
2018-08-07T18:35:13.552Z,5.00
2018-08-07T18:37:42.244Z,3.97
2018-08-07T18:40:10.920Z,4.63
2018-08-07T18:42:39.514Z,4.23
2018-08-07T18:45:10.129Z,4.27
2018-08-07T18:47:39.366Z,4.30
2018-08-07T18:50:10.262Z,5.10
2018-08-07T18:52:38.540Z,4.37
2018-08-07T18:55:09.307Z,4.77
2018-08-07T18:57:38.048Z,4.83
2018-08-07T19:00:10.343Z,5.10
2018-08-07T19:02:39.699Z,4.30
2018-08-07T19:05:08.671Z,4.70
2018-08-07T19:07:37.800Z,5.50
2018-08-07T19:10:06.952Z,6.13
2018-08-07T19:12:35.602Z,4.50
2018-08-07T19:15:04.337Z,4.60
2018-08-07T19:17:32.981Z,5.70
2018-08-07T19:20:01.909Z,4.47
2018-08-07T19:22:30.443Z,4.83
2018-08-07T19:24:59.841Z,5.07
2018-08-07T19:27:28.536Z,4.73
2018-08-07T19:29:56.850Z,4.30
2018-08-07T19:32:25.601Z,5.87
2018-08-07T19:34:54.282Z,5.00
2018-08-07T19:37:22.978Z,5.13
2018-08-07T19:39:51.695Z,5.03
2018-08-07T19:42:20.391Z,4.80
2018-08-07T19:44:49.146Z,4.80
2018-08-07T19:47:17.781Z,4.93
2018-08-07T19:49:46.437Z,5.00
2018-08-07T19:52:15.113Z,6.20
2018-08-07T19:54:43.589Z,5.17
2018-08-07T19:57:12.464Z,5.53
2018-08-07T19:59:41.201Z,4.63
2018-08-07T20:02:10.038Z,5.20
2018-08-07T20:04:38.732Z,5.70
2018-08-07T20:07:07.573Z,5.30
2018-08-07T20:09:36.445Z,4.93
2018-08-07T20:12:05.100Z,6.40
2018-08-07T20:14:33.875Z,5.60
2018-08-07T20:17:02.692Z,5.97
2018-08-07T20:19:31.468Z,6.20
2018-08-07T20:22:00.295Z,5.87
2018-08-07T20:24:29.039Z,5.53
2018-08-07T20:26:57.755Z,5.73
2018-08-07T20:29:26.490Z,5.30
2018-08-07T20:31:55.195Z,5.70
2018-08-07T20:34:23.903Z,5.07
2018-08-07T20:36:52.718Z,5.80
2018-08-07T20:39:21.638Z,6.23
2018-08-07T20:41:49.989Z,5.57
2018-08-07T20:44:18.726Z,6.00
2018-08-07T20:46:47.443Z,5.80
2018-08-07T20:49:16.157Z,5.53
2018-08-07T20:51:44.892Z,5.97
2018-08-07T20:54:13.568Z,6.70
2018-08-07T20:56:42.225Z,6.80
2018-08-07T20:59:10.940Z,6.77
2018-08-07T21:01:39.595Z,6.90
2018-08-07T21:04:08.290Z,6.83
2018-08-07T21:06:36.988Z,6.93
2018-08-07T21:09:07.802Z,6.50
2018-08-07T21:11:36.518Z,6.43
2018-08-07T21:14:05.235Z,6.20
2018-08-07T21:16:34.214Z,5.70
2018-08-07T21:19:02.886Z,6.43
2018-08-07T21:21:32.029Z,6.20
2018-08-07T21:24:00.841Z,6.50
2018-08-07T21:26:29.568Z,6.77
2018-08-07T21:28:58.229Z,6.03
2018-08-07T21:31:26.885Z,6.23
2018-08-07T21:33:55.539Z,6.47
2018-08-07T21:36:24.321Z,5.70
2018-08-07T21:38:53.100Z,6.10
2018-08-07T21:41:21.934Z,6.00
2018-08-07T21:43:50.626Z,6.50
2018-08-07T21:46:19.239Z,6.30
2018-08-07T21:48:47.896Z,5.70
2018-08-07T21:51:16.571Z,6.53
2018-08-07T21:53:45.293Z,7.07
2018-08-07T21:56:13.983Z,6.10
2018-08-07T21:58:42.688Z,6.10
2018-08-07T22:01:11.513Z,6.60
2018-08-07T22:03:40.246Z,6.67
2018-08-07T22:06:09.088Z,6.17
2018-08-07T22:08:37.943Z,6.03
2018-08-07T22:11:06.277Z,7.03
2018-08-07T22:13:34.950Z,7.00
2018-08-07T22:16:03.569Z,7.17
2018-08-07T22:18:32.305Z,5.83
2018-08-07T22:21:01.087Z,6.47
2018-08-07T22:23:29.836Z,5.67
2018-08-07T22:25:58.431Z,6.23
2018-08-07T22:28:27.067Z,5.20
2018-08-07T22:30:55.633Z,6.33
2018-08-07T22:33:24.219Z,6.03
2018-08-07T22:35:52.915Z,6.13
2018-08-07T22:38:21.590Z,5.70
2018-08-07T22:40:50.305Z,6.07
2018-08-07T22:43:18.997Z,6.70
2018-08-07T22:45:47.797Z,5.40
2018-08-07T22:48:16.092Z,5.60
2018-08-07T22:50:44.728Z,6.83
2018-08-07T22:53:13.384Z,6.00
2018-08-07T22:55:41.700Z,5.63
2018-08-07T22:58:10.556Z,5.80
2018-08-07T23:00:39.232Z,6.80
2018-08-07T23:03:08.007Z,6.17
2018-08-07T23:05:36.742Z,5.90
2018-08-07T23:08:05.478Z,5.87
2018-08-07T23:10:34.038Z,5.97
2018-08-07T23:13:02.750Z,5.83
2018-08-07T23:15:31.465Z,6.90
2018-08-07T23:18:00.142Z,6.20
2018-08-07T23:20:28.817Z,5.73
2018-08-07T23:22:57.953Z,6.07
2018-08-07T23:25:26.630Z,6.27
2018-08-07T23:27:55.299Z,6.40
2018-08-07T23:30:23.960Z,5.90
2018-08-07T23:32:52.675Z,6.13
2018-08-07T23:35:21.392Z,6.10
2018-08-07T23:37:50.087Z,5.97
2018-08-07T23:40:18.943Z,6.30
2018-08-07T23:42:47.619Z,6.00
2018-08-07T23:45:16.657Z,6.13
2018-08-07T23:47:45.390Z,5.77
2018-08-07T23:50:14.646Z,6.40
2018-08-07T23:52:43.301Z,6.70
2018-08-07T23:55:11.537Z,6.70
2018-08-07T23:57:40.413Z,7.17
